createdAt,value
2016-09-11T00:00:03.735Z,1005.31
2016-09-11T00:01:02.453Z,1005.32
2016-09-11T00:02:02.366Z,1005.3
2016-09-11T00:03:02.349Z,1005.29
2016-09-11T00:04:02.327Z,1005.29
2016-09-11T00:05:02.317Z,1005.27
2016-09-11T00:06:02.288Z,1005.29
2016-09-11T00:07:02.433Z,1005.28
2016-09-11T00:08:02.250Z,1005.3
2016-09-11T00:09:02.239Z,1005.3
2016-09-11T00:10:02.627Z,1005.33
2016-09-11T00:11:02.191Z,1005.36
2016-09-11T00:12:02.172Z,1005.32
2016-09-11T00:13:02.151Z,1005.35
2016-09-11T00:14:02.454Z,1005.32
2016-09-11T00:15:02.719Z,1005.35
2016-09-11T00:16:02.098Z,1005.31
2016-09-11T00:17:02.078Z,1005.34
2016-09-11T00:18:02.063Z,1005.33
2016-09-11T00:19:02.064Z,1005.32
2016-09-11T00:20:02.118Z,1005.3
2016-09-11T00:21:02.003Z,1005.3
2016-09-11T00:22:01.978Z,1005.3
2016-09-11T00:23:02.013Z,1005.29
2016-09-11T00:24:01.938Z,1005.3
2016-09-11T00:25:02.253Z,1005.3
2016-09-11T00:26:01.900Z,1005.29
2016-09-11T00:27:02.098Z,1005.31
2016-09-11T00:28:01.877Z,1005.27
2016-09-11T00:29:01.845Z,1005.26
2016-09-11T00:30:01.861Z,1005.25
2016-09-11T00:31:01.908Z,1005.29
2016-09-11T00:32:01.790Z,1005.27
2016-09-11T00:33:01.786Z,1005.27
2016-09-11T00:34:01.847Z,1005.26
2016-09-11T00:35:01.886Z,1005.27
2016-09-11T00:36:01.708Z,1005.29
2016-09-11T00:37:01.685Z,1005.25
2016-09-11T00:38:01.673Z,1005.24
2016-09-11T00:39:01.646Z,1005.28
2016-09-11T00:40:02.107Z,1005.27
2016-09-11T00:41:01.637Z,1005.27
2016-09-11T00:42:01.588Z,1005.28
2016-09-11T00:43:01.568Z,1005.28
2016-09-11T00:44:01.552Z,1005.28
2016-09-11T00:45:01.765Z,1005.28
2016-09-11T00:46:01.509Z,1005.28
2016-09-11T00:47:01.644Z,1005.32
2016-09-11T00:48:01.516Z,1005.26
2016-09-11T00:49:01.586Z,1005.31
2016-09-11T00:50:02.787Z,1005.29
2016-09-11T00:51:01.413Z,1005.28
2016-09-11T00:52:01.394Z,1005.29
2016-09-11T00:53:01.372Z,1005.29
2016-09-11T00:54:01.353Z,1005.3
2016-09-11T00:55:02.652Z,1005.3
2016-09-11T00:56:01.315Z,1005.31
2016-09-11T00:57:01.295Z,1005.29
2016-09-11T00:58:01.277Z,1005.27
2016-09-11T00:59:01.255Z,1005.3
2016-09-11T01:00:01.245Z,1005.32
2016-09-11T01:01:01.225Z,1005.31
2016-09-11T01:02:01.205Z,1005.32
2016-09-11T01:03:01.176Z,1005.32
2016-09-11T01:04:01.168Z,1005.31
2016-09-11T01:05:01.144Z,1005.35
2016-09-11T01:06:01.126Z,1005.33
2016-09-11T01:07:01.098Z,1005.3
2016-09-11T01:08:01.098Z,1005.31
2016-09-11T01:09:01.061Z,1005.31
2016-09-11T01:10:01.064Z,1005.28
2016-09-11T01:11:01.023Z,1005.29
2016-09-11T01:12:01.007Z,1005.32
2016-09-11T01:13:00.979Z,1005.32
2016-09-11T01:14:00.963Z,1005.32
2016-09-11T01:15:00.943Z,1005.31
2016-09-11T01:16:00.927Z,1005.28
2016-09-11T01:17:00.914Z,1005.29
2016-09-11T01:18:00.884Z,1005.32
2016-09-11T01:19:00.868Z,1005.32
2016-09-11T01:20:00.899Z,1005.37
2016-09-11T01:21:00.825Z,1005.34
2016-09-11T01:22:00.809Z,1005.35
2016-09-11T01:23:00.784Z,1005.36
2016-09-11T01:24:00.801Z,1005.37
2016-09-11T01:25:00.744Z,1005.35
2016-09-11T01:26:00.832Z,1005.37
2016-09-11T01:27:00.706Z,1005.37
2016-09-11T01:28:00.685Z,1005.34
2016-09-11T01:29:00.668Z,1005.37
2016-09-11T01:30:00.643Z,1005.38
2016-09-11T01:31:00.731Z,1005.37
2016-09-11T01:32:00.681Z,1005.4
2016-09-11T01:33:00.587Z,1005.38
2016-09-11T01:34:00.565Z,1005.4
2016-09-11T01:35:00.546Z,1005.4
2016-09-11T01:36:00.530Z,1005.38
2016-09-11T01:37:00.508Z,1005.37
2016-09-11T01:38:00.485Z,1005.39
2016-09-11T01:39:00.485Z,1005.38
2016-09-11T01:40:00.479Z,1005.39
2016-09-11T01:41:00.592Z,1005.34
2016-09-11T01:42:00.438Z,1005.34
2016-09-11T01:43:00.554Z,1005.36
2016-09-11T01:44:00.370Z,1005.36
2016-09-11T01:45:00.712Z,1005.37
2016-09-11T01:46:00.329Z,1005.33
2016-09-11T01:47:00.355Z,1005.37
2016-09-11T01:48:00.435Z,1005.37
2016-09-11T01:49:00.517Z,1005.37
2016-09-11T01:50:00.699Z,1005.38
2016-09-11T01:51:00.549Z,1005.37
2016-09-11T01:52:00.241Z,1005.38
2016-09-11T01:53:00.268Z,1005.36
2016-09-11T01:54:00.405Z,1005.35
2016-09-11T01:55:00.189Z,1005.35
2016-09-11T01:56:00.399Z,1005.33
2016-09-11T01:57:00.463Z,1005.33
2016-09-11T01:58:00.167Z,1005.33
2016-09-11T01:59:00.073Z,1005.3
2016-09-11T02:00:00.120Z,1005.29
2016-09-11T02:01:00.038Z,1005.27
2016-09-11T02:02:00.015Z,1005.29
2016-09-11T02:02:59.986Z,1005.27
2016-09-11T02:03:59.965Z,1005.3
2016-09-11T02:04:59.951Z,1005.3
2016-09-11T02:05:59.940Z,1005.28
2016-09-11T02:06:59.904Z,1005.31
2016-09-11T02:07:59.888Z,1005.34
2016-09-11T02:08:59.865Z,1005.29
2016-09-11T02:09:59.847Z,1005.29
2016-09-11T02:10:59.830Z,1005.29
2016-09-11T02:11:59.806Z,1005.29
2016-09-11T02:12:59.805Z,1005.28
2016-09-11T02:13:59.763Z,1005.25
2016-09-11T02:14:59.743Z,1005.28
2016-09-11T02:15:59.724Z,1005.25
2016-09-11T02:16:59.718Z,1005.26
2016-09-11T02:17:59.694Z,1005.23
2016-09-11T02:18:59.666Z,1005.22
2016-09-11T02:19:59.645Z,1005.25
2016-09-11T02:20:59.627Z,1005.25
2016-09-11T02:21:59.609Z,1005.25
2016-09-11T02:22:59.583Z,1005.26
2016-09-11T02:23:59.563Z,1005.25
2016-09-11T02:24:59.545Z,1005.25
2016-09-11T02:25:59.523Z,1005.26
2016-09-11T02:26:59.504Z,1005.28
2016-09-11T02:27:59.516Z,1005.3
2016-09-11T02:28:59.462Z,1005.33
2016-09-11T02:29:59.442Z,1005.31
2016-09-11T02:30:59.423Z,1005.34
2016-09-11T02:31:59.403Z,1005.32
2016-09-11T02:32:59.382Z,1005.32
2016-09-11T02:33:59.361Z,1005.35
2016-09-11T02:34:59.355Z,1005.37
2016-09-11T02:35:59.348Z,1005.39
2016-09-11T02:36:59.301Z,1005.41
2016-09-11T02:37:59.280Z,1005.39
2016-09-11T02:38:59.296Z,1005.45
2016-09-11T02:39:59.239Z,1005.42
2016-09-11T02:40:59.242Z,1005.42
2016-09-11T02:41:59.202Z,1005.45
2016-09-11T02:42:59.179Z,1005.44
2016-09-11T02:43:59.158Z,1005.47
2016-09-11T02:44:59.139Z,1005.46
2016-09-11T02:45:59.124Z,1005.49
2016-09-11T02:46:59.098Z,1005.51
2016-09-11T02:47:59.078Z,1005.48
2016-09-11T02:48:59.059Z,1005.48
2016-09-11T02:49:59.044Z,1005.47
2016-09-11T02:50:59.017Z,1005.53
2016-09-11T02:51:58.997Z,1005.49
2016-09-11T02:52:59.010Z,1005.49
2016-09-11T02:53:58.959Z,1005.49
2016-09-11T02:54:58.937Z,1005.51
2016-09-11T02:55:58.917Z,1005.51
2016-09-11T02:56:58.897Z,1005.5
2016-09-11T02:57:58.880Z,1005.49
2016-09-11T02:58:58.860Z,1005.49
2016-09-11T02:59:58.867Z,1005.51
2016-09-11T03:00:58.849Z,1005.51
2016-09-11T03:01:58.796Z,1005.53
2016-09-11T03:02:58.778Z,1005.5
2016-09-11T03:03:58.755Z,1005.57
2016-09-11T03:04:58.734Z,1005.5
2016-09-11T03:05:58.719Z,1005.52
2016-09-11T03:06:58.697Z,1005.55
2016-09-11T03:07:58.675Z,1005.54
2016-09-11T03:08:58.658Z,1005.55
2016-09-11T03:09:58.633Z,1005.52
2016-09-11T03:10:58.685Z,1005.54
2016-09-11T03:11:58.591Z,1005.56
2016-09-11T03:12:58.572Z,1005.52
2016-09-11T03:13:58.560Z,1005.56
2016-09-11T03:14:58.532Z,1005.58
2016-09-11T03:15:58.511Z,1005.63
2016-09-11T03:16:58.491Z,1005.56
2016-09-11T03:17:58.471Z,1005.57
2016-09-11T03:18:58.450Z,1005.56
2016-09-11T03:19:58.436Z,1005.58
2016-09-11T03:20:58.410Z,1005.58
2016-09-11T03:21:58.392Z,1005.61
2016-09-11T03:22:58.368Z,1005.56
2016-09-11T03:23:58.348Z,1005.55
2016-09-11T03:24:58.329Z,1005.57
2016-09-11T03:25:58.310Z,1005.57
2016-09-11T03:26:58.288Z,1005.62
2016-09-11T03:27:58.272Z,1005.57
2016-09-11T03:28:58.248Z,1005.62
2016-09-11T03:29:58.228Z,1005.6
2016-09-11T03:30:58.206Z,1005.61
2016-09-11T03:31:58.187Z,1005.58
2016-09-11T03:32:58.169Z,1005.55
2016-09-11T03:33:58.145Z,1005.58
2016-09-11T03:34:58.125Z,1005.54
2016-09-11T03:35:58.106Z,1005.52
2016-09-11T03:36:58.095Z,1005.5
2016-09-11T03:37:58.064Z,1005.51
2016-09-11T03:38:58.048Z,1005.52
2016-09-11T03:39:58.026Z,1005.5
2016-09-11T03:40:58.005Z,1005.54
2016-09-11T03:41:57.983Z,1005.52
2016-09-11T03:42:57.963Z,1005.54
2016-09-11T03:43:57.984Z,1005.53
2016-09-11T03:44:57.923Z,1005.56
2016-09-11T03:45:57.907Z,1005.52
2016-09-11T03:46:57.894Z,1005.55
2016-09-11T03:47:57.862Z,1005.57
2016-09-11T03:48:57.841Z,1005.53
2016-09-11T03:49:57.821Z,1005.53
2016-09-11T03:50:57.802Z,1005.53
2016-09-11T03:51:57.781Z,1005.53
2016-09-11T03:52:57.762Z,1005.52
2016-09-11T03:53:57.748Z,1005.5
2016-09-11T03:54:57.736Z,1005.56
2016-09-11T03:55:57.700Z,1005.55
2016-09-11T03:56:57.680Z,1005.56
2016-09-11T03:57:57.665Z,1005.53
2016-09-11T03:58:57.640Z,1005.58
2016-09-11T03:59:57.634Z,1005.54
2016-09-11T04:00:57.600Z,1005.54
2016-09-11T04:01:57.580Z,1005.59
2016-09-11T04:02:57.559Z,1005.55
2016-09-11T04:03:57.539Z,1005.6
2016-09-11T04:04:57.519Z,1005.58
2016-09-11T04:05:57.499Z,1005.56
2016-09-11T04:06:57.478Z,1005.6
2016-09-11T04:07:57.471Z,1005.59
2016-09-11T04:08:57.439Z,1005.6
2016-09-11T04:09:57.419Z,1005.6
2016-09-11T04:10:57.411Z,1005.61
2016-09-11T04:11:57.379Z,1005.61
2016-09-11T04:12:57.364Z,1005.6
2016-09-11T04:13:57.338Z,1005.6
2016-09-11T04:14:57.324Z,1005.62
2016-09-11T04:15:57.299Z,1005.6
2016-09-11T04:16:57.279Z,1005.61
2016-09-11T04:17:57.257Z,1005.6
2016-09-11T04:18:57.239Z,1005.61
2016-09-11T04:19:57.218Z,1005.55
2016-09-11T04:20:57.198Z,1005.58
2016-09-11T04:21:57.190Z,1005.57
2016-09-11T04:22:57.160Z,1005.58
2016-09-11T04:23:57.147Z,1005.61
2016-09-11T04:25:08.031Z,1005.58
2016-09-11T04:25:57.098Z,1005.56
2016-09-11T04:26:57.079Z,1005.6
2016-09-11T04:27:57.058Z,1005.59
2016-09-11T04:28:57.038Z,1005.6
2016-09-11T04:29:57.019Z,1005.61
2016-09-11T04:30:56.998Z,1005.67
2016-09-11T04:31:56.979Z,1005.65
2016-09-11T04:32:56.958Z,1005.69
2016-09-11T04:33:56.938Z,1005.69
2016-09-11T04:34:56.919Z,1005.67
2016-09-11T04:35:56.898Z,1005.72
2016-09-11T04:36:56.880Z,1005.7
2016-09-11T04:37:56.860Z,1005.7
2016-09-11T04:38:56.840Z,1005.71
2016-09-11T04:39:56.818Z,1005.71
2016-09-11T04:40:56.799Z,1005.73
2016-09-11T04:41:56.779Z,1005.76
2016-09-11T04:42:56.760Z,1005.74
2016-09-11T04:43:56.759Z,1005.75
2016-09-11T04:44:56.720Z,1005.72
2016-09-11T04:45:56.700Z,1005.72
2016-09-11T04:46:56.683Z,1005.77
2016-09-11T04:47:56.660Z,1005.77
2016-09-11T04:48:56.640Z,1005.72
2016-09-11T04:49:56.621Z,1005.76
2016-09-11T04:50:56.600Z,1005.76
2016-09-11T04:51:56.580Z,1005.75
2016-09-11T04:52:56.560Z,1005.75
2016-09-11T04:53:56.541Z,1005.78
2016-09-11T04:54:56.520Z,1005.74
2016-09-11T04:55:56.501Z,1005.78
2016-09-11T04:56:56.481Z,1005.81
2016-09-11T04:57:56.461Z,1005.82
2016-09-11T04:58:56.441Z,1005.81
2016-09-11T04:59:56.422Z,1005.86
2016-09-11T05:00:56.401Z,1005.86
2016-09-11T05:01:56.392Z,1005.8
2016-09-11T05:02:56.361Z,1005.82
2016-09-11T05:03:56.342Z,1005.85
2016-09-11T05:04:56.323Z,1005.85
2016-09-11T05:05:56.302Z,1005.86
2016-09-11T05:06:56.282Z,1005.87
2016-09-11T05:07:56.263Z,1005.87
2016-09-11T05:08:56.242Z,1005.87
2016-09-11T05:09:56.224Z,1005.88
2016-09-11T05:10:56.203Z,1005.88
2016-09-11T05:11:56.184Z,1005.89
2016-09-11T05:12:56.163Z,1005.89
2016-09-11T05:13:56.143Z,1005.9
2016-09-11T05:14:56.124Z,1005.9
2016-09-11T05:15:56.104Z,1005.91
2016-09-11T05:16:56.084Z,1005.94
2016-09-11T05:17:56.065Z,1005.95
2016-09-11T05:18:56.045Z,1005.97
2016-09-11T05:19:56.024Z,1005.97
2016-09-11T05:20:56.005Z,1005.97
2016-09-11T05:21:55.985Z,1006.03
2016-09-11T05:22:55.966Z,1006.03
2016-09-11T05:23:55.945Z,1006.04
2016-09-11T05:24:55.926Z,1006.04
2016-09-11T05:25:55.906Z,1006.04
2016-09-11T05:26:55.887Z,1006.06
2016-09-11T05:27:55.877Z,1006.11
2016-09-11T05:28:55.849Z,1006.09
2016-09-11T05:29:55.829Z,1006.1
2016-09-11T05:30:55.809Z,1006.09
2016-09-11T05:31:55.790Z,1006.11
2016-09-11T05:32:55.772Z,1006.07
2016-09-11T05:33:55.759Z,1006.08
2016-09-11T05:34:55.731Z,1006.12
2016-09-11T05:35:55.712Z,1006.12
2016-09-11T05:36:55.693Z,1006.14
2016-09-11T05:37:55.673Z,1006.14
2016-09-11T05:38:55.654Z,1006.13
2016-09-11T05:39:55.634Z,1006.13
2016-09-11T05:40:55.615Z,1006.17
2016-09-11T05:41:55.595Z,1006.16
2016-09-11T05:42:55.576Z,1006.18
2016-09-11T05:43:55.558Z,1006.2
2016-09-11T05:44:55.538Z,1006.21
2016-09-11T05:45:55.518Z,1006.21
2016-09-11T05:46:55.500Z,1006.25
2016-09-11T05:47:55.480Z,1006.22
2016-09-11T05:48:55.461Z,1006.23
2016-09-11T05:49:55.442Z,1006.23
2016-09-11T05:50:55.423Z,1006.27
2016-09-11T05:51:55.404Z,1006.26
2016-09-11T05:52:55.384Z,1006.27
2016-09-11T05:53:55.365Z,1006.3
2016-09-11T05:54:55.346Z,1006.3
2016-09-11T05:55:55.326Z,1006.32
2016-09-11T05:56:55.308Z,1006.32
2016-09-11T05:57:55.290Z,1006.38
2016-09-11T05:58:55.270Z,1006.37
2016-09-11T05:59:55.251Z,1006.38
2016-09-11T06:00:55.232Z,1006.4
2016-09-11T06:01:55.215Z,1006.38
2016-09-11T06:02:55.195Z,1006.37
2016-09-11T06:03:55.176Z,1006.37
2016-09-11T06:04:55.157Z,1006.41
2016-09-11T06:05:55.139Z,1006.37
2016-09-11T06:06:55.120Z,1006.38
2016-09-11T06:07:55.100Z,1006.36
2016-09-11T06:08:55.084Z,1006.4
2016-09-11T06:09:55.063Z,1006.41
2016-09-11T06:10:55.044Z,1006.43
2016-09-11T06:11:55.029Z,1006.47
2016-09-11T06:12:55.017Z,1006.48
2016-09-11T06:13:54.995Z,1006.52
2016-09-11T06:14:54.969Z,1006.49
2016-09-11T06:15:54.954Z,1006.5
2016-09-11T06:16:54.932Z,1006.54
2016-09-11T06:17:54.921Z,1006.54
2016-09-11T06:18:54.897Z,1006.59
2016-09-11T06:19:54.885Z,1006.6
2016-09-11T06:20:54.858Z,1006.6
2016-09-11T06:21:54.844Z,1006.58
2016-09-11T06:22:54.823Z,1006.58
2016-09-11T06:23:54.803Z,1006.62
2016-09-11T06:24:54.784Z,1006.68
2016-09-11T06:25:54.898Z,1006.68
2016-09-11T06:26:54.748Z,1006.7
2016-09-11T06:27:54.731Z,1006.69
2016-09-11T06:28:54.711Z,1006.7
2016-09-11T06:29:54.699Z,1006.69
2016-09-11T06:30:54.674Z,1006.66
2016-09-11T06:31:54.660Z,1006.71
2016-09-11T06:32:54.641Z,1006.71
2016-09-11T06:33:54.623Z,1006.71
2016-09-11T06:34:54.605Z,1006.74
2016-09-11T06:35:54.584Z,1006.71
2016-09-11T06:36:54.565Z,1006.75
2016-09-11T06:37:54.547Z,1006.74
2016-09-11T06:38:54.530Z,1006.74
2016-09-11T06:39:54.511Z,1006.75
2016-09-11T06:40:54.494Z,1006.77
2016-09-11T06:41:54.600Z,1006.79
2016-09-11T06:42:54.457Z,1006.81
2016-09-11T06:43:54.449Z,1006.81
2016-09-11T06:44:54.423Z,1006.8
2016-09-11T06:45:54.404Z,1006.86
2016-09-11T06:46:54.388Z,1006.88
2016-09-11T06:47:54.368Z,1006.89
2016-09-11T06:48:54.351Z,1006.89
2016-09-11T06:49:54.333Z,1006.93
2016-09-11T06:50:54.318Z,1006.95
2016-09-11T06:51:54.298Z,1006.95
2016-09-11T06:52:54.283Z,1006.94
2016-09-11T06:53:54.274Z,1006.95
2016-09-11T06:54:54.248Z,1006.98
2016-09-11T06:55:54.230Z,1007.01
2016-09-11T06:56:54.214Z,1007.05
2016-09-11T06:57:54.195Z,1006.99
2016-09-11T06:58:54.178Z,1007.02
2016-09-11T06:59:54.213Z,1007.08
2016-09-11T07:00:54.143Z,1007.05
2016-09-11T07:01:54.126Z,1007.07
2016-09-11T07:02:54.109Z,1007.06
2016-09-11T07:03:54.093Z,1007.11
2016-09-11T07:04:54.090Z,1007.09
2016-09-11T07:05:54.067Z,1007.16
2016-09-11T07:06:54.046Z,1007.16
2016-09-11T07:07:54.039Z,1007.16
2016-09-11T07:08:54.010Z,1007.16
2016-09-11T07:09:54.007Z,1007.18
2016-09-11T07:10:53.978Z,1007.18
2016-09-11T07:11:53.959Z,1007.23
2016-09-11T07:12:53.954Z,1007.22
2016-09-11T07:13:53.927Z,1007.27
2016-09-11T07:14:53.909Z,1007.26
2016-09-11T07:15:53.892Z,1007.23
2016-09-11T07:16:53.906Z,1007.33
2016-09-11T07:17:53.868Z,1007.25
2016-09-11T07:18:53.844Z,1007.28
2016-09-11T07:19:53.831Z,1007.29
2016-09-11T07:20:53.824Z,1007.29
2016-09-11T07:21:53.792Z,1007.3
2016-09-11T07:22:53.776Z,1007.31
2016-09-11T07:23:53.758Z,1007.31
2016-09-11T07:24:53.743Z,1007.3
2016-09-11T07:25:53.726Z,1007.32
2016-09-11T07:26:53.710Z,1007.29
2016-09-11T07:27:53.711Z,1007.3
2016-09-11T07:28:53.677Z,1007.3
2016-09-11T07:29:53.662Z,1007.27
2016-09-11T07:30:53.645Z,1007.31
2016-09-11T07:31:53.628Z,1007.35
2016-09-11T07:32:53.612Z,1007.33
2016-09-11T07:33:53.678Z,1007.31
2016-09-11T07:34:53.582Z,1007.33
2016-09-11T07:35:53.567Z,1007.27
2016-09-11T07:36:53.548Z,1007.29
2016-09-11T07:37:53.533Z,1007.3
2016-09-11T07:38:53.515Z,1007.31
2016-09-11T07:39:53.504Z,1007.36
2016-09-11T07:40:53.488Z,1007.34
2016-09-11T07:41:53.468Z,1007.33
2016-09-11T07:42:53.451Z,1007.37
2016-09-11T07:43:53.470Z,1007.38
2016-09-11T07:44:53.421Z,1007.37
2016-09-11T07:45:53.409Z,1007.36
2016-09-11T07:46:53.388Z,1007.38
2016-09-11T07:47:53.465Z,1007.42
2016-09-11T07:48:53.365Z,1007.43
2016-09-11T07:49:53.340Z,1007.42
2016-09-11T07:50:53.326Z,1007.4
2016-09-11T07:51:53.310Z,1007.47
2016-09-11T07:52:53.298Z,1007.45
2016-09-11T07:53:53.284Z,1007.47
2016-09-11T07:54:53.263Z,1007.48
2016-09-11T07:55:53.248Z,1007.52
2016-09-11T07:56:53.233Z,1007.51
2016-09-11T07:57:53.228Z,1007.54
2016-09-11T07:58:53.203Z,1007.56
2016-09-11T07:59:53.187Z,1007.56
2016-09-11T08:00:53.172Z,1007.56
2016-09-11T08:01:53.156Z,1007.58
2016-09-11T08:02:53.140Z,1007.59
2016-09-11T08:03:53.126Z,1007.58
2016-09-11T08:04:53.110Z,1007.6
2016-09-11T08:05:53.095Z,1007.61
2016-09-11T08:06:53.090Z,1007.6
2016-09-11T08:07:53.072Z,1007.59
2016-09-11T08:08:53.056Z,1007.63
2016-09-11T08:09:53.251Z,1007.62
2016-09-11T08:10:53.026Z,1007.68
2016-09-11T08:11:53.006Z,1007.65
2016-09-11T08:12:52.996Z,1007.67
2016-09-11T08:13:52.976Z,1007.71
2016-09-11T08:14:52.961Z,1007.72
2016-09-11T08:15:53.002Z,1007.74
2016-09-11T08:16:52.934Z,1007.72
2016-09-11T08:17:52.997Z,1007.71
2016-09-11T08:18:52.902Z,1007.75
2016-09-11T08:19:52.888Z,1007.75
2016-09-11T08:20:52.874Z,1007.79
2016-09-11T08:21:52.859Z,1007.78
2016-09-11T08:22:52.844Z,1007.82
2016-09-11T08:23:52.830Z,1007.86
2016-09-11T08:24:52.816Z,1007.79
2016-09-11T08:25:52.804Z,1007.83
2016-09-11T08:26:52.787Z,1007.86
2016-09-11T08:27:52.775Z,1007.82
2016-09-11T08:28:52.758Z,1007.8
2016-09-11T08:29:52.761Z,1007.85
2016-09-11T08:30:52.730Z,1007.86
2016-09-11T08:31:52.716Z,1007.82
2016-09-11T08:32:52.744Z,1007.84
2016-09-11T08:33:52.687Z,1007.84
2016-09-11T08:34:52.679Z,1007.86
2016-09-11T08:35:52.660Z,1007.84
2016-09-11T08:36:52.668Z,1007.85
2016-09-11T08:37:52.633Z,1007.86
2016-09-11T08:38:52.642Z,1007.87
2016-09-11T08:39:52.615Z,1007.83
2016-09-11T08:40:52.595Z,1007.86
2016-09-11T08:41:52.577Z,1007.87
2016-09-11T08:42:52.562Z,1007.91
2016-09-11T08:43:52.571Z,1007.89
2016-09-11T08:44:52.536Z,1007.91
2016-09-11T08:45:52.531Z,1007.92
2016-09-11T08:46:52.517Z,1007.95
2016-09-11T08:47:52.494Z,1007.97
2016-09-11T08:48:52.482Z,1007.99
2016-09-11T08:49:52.502Z,1008.05
2016-09-11T08:50:52.455Z,1008.01
2016-09-11T08:51:52.448Z,1008.07
2016-09-11T08:52:52.457Z,1008.04
2016-09-11T08:53:52.417Z,1008.05
2016-09-11T08:54:52.401Z,1008.03
2016-09-11T08:55:52.387Z,1008.08
2016-09-11T08:56:52.375Z,1008.02
2016-09-11T08:57:52.361Z,1008.04
2016-09-11T08:58:52.347Z,1008.05
2016-09-11T08:59:52.337Z,1008.05
2016-09-11T09:00:52.322Z,1008.06
2016-09-11T09:01:52.309Z,1008.05
2016-09-11T09:02:52.297Z,1008.08
2016-09-11T09:03:52.283Z,1008.1
2016-09-11T09:04:52.269Z,1008.09
2016-09-11T09:05:52.257Z,1008.13
2016-09-11T09:06:52.249Z,1008.1
2016-09-11T09:07:52.230Z,1008.13
2016-09-11T09:08:52.220Z,1008.16
2016-09-11T09:09:52.257Z,1008.14
2016-09-11T09:10:52.190Z,1008.12
2016-09-11T09:11:52.179Z,1008.15
2016-09-11T09:12:52.166Z,1008.14
2016-09-11T09:13:52.151Z,1008.11
2016-09-11T09:14:52.138Z,1008.16
2016-09-11T09:15:52.126Z,1008.1
2016-09-11T09:16:52.114Z,1008.07
2016-09-11T09:17:52.099Z,1008.13
2016-09-11T09:18:52.110Z,1008.16
2016-09-11T09:19:52.077Z,1008.1
2016-09-11T09:20:52.065Z,1008.16
2016-09-11T09:21:52.048Z,1008.17
2016-09-11T09:22:52.035Z,1008.12
2016-09-11T09:23:52.022Z,1008.19
2016-09-11T09:24:52.010Z,1008.19
2016-09-11T09:25:51.997Z,1008.24
2016-09-11T09:26:51.988Z,1008.21
2016-09-11T09:27:51.972Z,1008.22
2016-09-11T09:28:51.962Z,1008.2
2016-09-11T09:29:51.946Z,1008.2
2016-09-11T09:30:51.943Z,1008.19
2016-09-11T09:31:51.919Z,1008.2
2016-09-11T09:32:51.907Z,1008.21
2016-09-11T09:33:51.895Z,1008.24
2016-09-11T09:34:52.029Z,1008.24
2016-09-11T09:35:51.872Z,1008.23
2016-09-11T09:36:51.857Z,1008.27
2016-09-11T09:37:51.844Z,1008.24
2016-09-11T09:38:51.834Z,1008.29
2016-09-11T09:39:51.821Z,1008.27
2016-09-11T09:40:51.817Z,1008.28
2016-09-11T09:41:51.830Z,1008.27
2016-09-11T09:42:51.787Z,1008.23
2016-09-11T09:43:51.779Z,1008.23
2016-09-11T09:44:51.757Z,1008.26
2016-09-11T09:45:51.745Z,1008.25
2016-09-11T09:46:51.732Z,1008.3
2016-09-11T09:47:51.721Z,1008.32
2016-09-11T09:48:51.764Z,1008.27
2016-09-11T09:49:51.695Z,1008.3
2016-09-11T09:50:51.691Z,1008.29
2016-09-11T09:51:51.670Z,1008.35
2016-09-11T09:52:51.657Z,1008.37
2016-09-11T09:53:51.656Z,1008.35
2016-09-11T09:54:51.635Z,1008.34
2016-09-11T09:55:51.621Z,1008.34
2016-09-11T09:56:51.608Z,1008.36
2016-09-11T09:57:51.595Z,1008.35
2016-09-11T09:58:51.585Z,1008.38
2016-09-11T09:59:51.571Z,1008.34
2016-09-11T10:00:51.561Z,1008.4
2016-09-11T10:01:51.546Z,1008.38
2016-09-11T10:02:51.541Z,1008.38
2016-09-11T10:03:51.522Z,1008.37
2016-09-11T10:04:51.510Z,1008.34
2016-09-11T10:05:51.497Z,1008.44
2016-09-11T10:06:51.485Z,1008.37
2016-09-11T10:07:51.500Z,1008.43
2016-09-11T10:08:51.458Z,1008.47
2016-09-11T10:09:51.447Z,1008.38
2016-09-11T10:10:51.435Z,1008.44
2016-09-11T10:11:51.424Z,1008.4
2016-09-11T10:12:51.411Z,1008.38
2016-09-11T10:13:51.405Z,1008.37
2016-09-11T10:14:51.389Z,1008.4
2016-09-11T10:15:51.375Z,1008.39
2016-09-11T10:16:51.375Z,1008.38
2016-09-11T10:17:51.430Z,1008.4
2016-09-11T10:18:51.351Z,1008.43
2016-09-11T10:19:51.555Z,1008.43
2016-09-11T10:20:51.317Z,1008.41
2016-09-11T10:21:51.304Z,1008.43
2016-09-11T10:22:51.292Z,1008.4
2016-09-11T10:23:51.282Z,1008.4
2016-09-11T10:24:51.270Z,1008.4
2016-09-11T10:25:51.257Z,1008.37
2016-09-11T10:26:51.244Z,1008.41
2016-09-11T10:27:51.249Z,1008.4
2016-09-11T10:28:51.225Z,1008.43
2016-09-11T10:29:51.212Z,1008.45
2016-09-11T10:30:51.201Z,1008.44
2016-09-11T10:31:51.187Z,1008.45
2016-09-11T10:32:51.175Z,1008.46
2016-09-11T10:33:51.169Z,1008.48
2016-09-11T10:34:51.157Z,1008.46
2016-09-11T10:35:51.140Z,1008.45
2016-09-11T10:36:51.141Z,1008.41
2016-09-11T10:37:51.118Z,1008.42
2016-09-11T10:38:51.105Z,1008.45
2016-09-11T10:39:51.093Z,1008.41
2016-09-11T10:40:51.085Z,1008.4
2016-09-11T10:41:51.069Z,1008.39
2016-09-11T10:42:51.067Z,1008.43
2016-09-11T10:43:51.046Z,1008.38
2016-09-11T10:44:51.032Z,1008.34
2016-09-11T10:45:51.021Z,1008.31
2016-09-11T10:46:51.048Z,1008.39
2016-09-11T10:47:50.998Z,1008.36
2016-09-11T10:48:50.985Z,1008.41
2016-09-11T10:49:50.974Z,1008.44
2016-09-11T10:50:50.992Z,1008.44
2016-09-11T10:51:50.954Z,1008.45
2016-09-11T10:52:50.941Z,1008.47
2016-09-11T10:53:50.929Z,1008.5
2016-09-11T10:54:50.918Z,1008.5
2016-09-11T10:55:50.932Z,1008.52
2016-09-11T10:56:50.900Z,1008.51
2016-09-11T10:57:50.884Z,1008.49
2016-09-11T10:58:50.865Z,1008.55
2016-09-11T10:59:50.853Z,1008.49
2016-09-11T11:00:50.849Z,1008.49
2016-09-11T11:01:50.829Z,1008.48
2016-09-11T11:02:50.820Z,1008.47
2016-09-11T11:03:50.808Z,1008.45
2016-09-11T11:04:50.802Z,1008.44
2016-09-11T11:05:50.783Z,1008.43
2016-09-11T11:06:50.770Z,1008.41
2016-09-11T11:07:50.801Z,1008.39
2016-09-11T11:08:50.746Z,1008.4
2016-09-11T11:09:50.742Z,1008.4
2016-09-11T11:10:50.722Z,1008.38
2016-09-11T11:11:50.710Z,1008.4
2016-09-11T11:12:50.702Z,1008.36
2016-09-11T11:13:50.688Z,1008.44
2016-09-11T11:14:50.708Z,1008.39
2016-09-11T11:15:50.664Z,1008.43
2016-09-11T11:16:50.651Z,1008.41
2016-09-11T11:17:50.640Z,1008.43
2016-09-11T11:18:50.628Z,1008.43
2016-09-11T11:19:50.640Z,1008.42
2016-09-11T11:20:50.605Z,1008.38
2016-09-11T11:21:50.592Z,1008.35
2016-09-11T11:22:50.582Z,1008.39
2016-09-11T11:23:50.572Z,1008.38
2016-09-11T11:24:50.563Z,1008.33
2016-09-11T11:25:50.546Z,1008.37
2016-09-11T11:26:50.537Z,1008.33
2016-09-11T11:27:50.527Z,1008.36
2016-09-11T11:28:50.510Z,1008.37
2016-09-11T11:29:50.499Z,1008.39
2016-09-11T11:30:50.487Z,1008.37
2016-09-11T11:31:50.475Z,1008.35
2016-09-11T11:32:50.467Z,1008.35
2016-09-11T11:33:50.455Z,1008.35
2016-09-11T11:34:50.538Z,1008.34
2016-09-11T11:35:50.434Z,1008.37
2016-09-11T11:36:50.451Z,1008.38
2016-09-11T11:37:50.404Z,1008.3
2016-09-11T11:38:50.392Z,1008.32
2016-09-11T11:39:50.382Z,1008.29
2016-09-11T11:40:50.376Z,1008.29
2016-09-11T11:41:50.366Z,1008.31
2016-09-11T11:42:50.362Z,1008.31
2016-09-11T11:43:50.342Z,1008.32
2016-09-11T11:44:50.323Z,1008.3
2016-09-11T11:45:50.322Z,1008.29
2016-09-11T11:46:50.300Z,1008.34
2016-09-11T11:47:50.290Z,1008.31
2016-09-11T11:48:54.903Z,1008.31
2016-09-11T11:49:50.268Z,1008.31
2016-09-11T11:50:50.268Z,1008.31
2016-09-11T11:51:50.298Z,1008.29
2016-09-11T11:52:50.238Z,1008.29
2016-09-11T11:53:50.222Z,1008.27
2016-09-11T11:54:50.218Z,1008.32
2016-09-11T11:55:50.203Z,1008.31
2016-09-11T11:56:50.195Z,1008.29
2016-09-11T11:57:50.183Z,1008.3
2016-09-11T11:58:50.168Z,1008.3
2016-09-11T11:59:50.164Z,1008.31
2016-09-11T12:00:50.158Z,1008.29
2016-09-11T12:01:50.138Z,1008.32
2016-09-11T12:02:50.148Z,1008.3
2016-09-11T12:03:50.116Z,1008.31
2016-09-11T12:04:50.103Z,1008.33
2016-09-11T12:05:50.093Z,1008.31
2016-09-11T12:06:50.082Z,1008.35
2016-09-11T12:07:50.081Z,1008.31